Time;durP1;ratioP1;P1;durP2;ratioP2;P2;SDS_P1;SDS_P2;PMS_P1;PMS_P2;Temp;Humidity;BMP_temperature;BMP_pressure;BME280_temperature;BME280_humidity;BME280_pressure;Samples;Min_cycle;Max_cycle;Signal;HPM_P1;HPM_P2
2023/10/04 00:00:19;;;;;;;1.70;1.08;;;11.10;99.90;;;;;;5071050;28;20407;-61
2023/10/04 00:02:54;;;;;;;0.90;0.90;;;11.00;99.90;;;;;;5070796;28;20690;-61
2023/10/04 00:05:24;;;;;;;0.70;0.70;;;11.00;99.90;;;;;;5072600;28;20415;-61
2023/10/04 00:07:51;;;;;;;0.50;0.50;;;10.90;99.90;;;;;;5074262;28;20584;-60
2023/10/04 00:10:18;;;;;;;0.70;0.70;;;10.80;99.90;;;;;;5074713;28;20932;-61
2023/10/04 00:12:45;;;;;;;0.60;0.60;;;10.90;99.90;;;;;;5074371;28;20217;-61
2023/10/04 00:15:12;;;;;;;2.20;1.07;;;11.10;99.90;;;;;;5074343;28;20254;-61
2023/10/04 00:17:42;;;;;;;1.05;1.00;;;11.10;99.90;;;;;;5073989;28;20776;-61
2023/10/04 00:20:13;;;;;;;0.40;0.40;;;11.10;99.90;;;;;;5074561;28;20177;-61
2023/10/04 00:22:40;;;;;;;0.70;0.70;;;11.10;99.90;;;;;;5074113;28;20217;-61
2023/10/04 00:25:20;;;;;;;0.83;0.67;;;11.00;99.90;;;;;;5074374;28;20181;-61
2023/10/04 00:27:46;;;;;;;1.63;1.13;;;11.00;99.90;;;;;;5073939;28;20458;-61
2023/10/04 00:30:17;;;;;;;0.40;0.40;;;11.00;99.90;;;;;;5074171;28;20473;-61
2023/10/04 00:32:44;;;;;;;0.60;0.60;;;11.00;99.90;;;;;;5074338;28;20798;-61
2023/10/04 00:35:19;;;;;;;1.98;1.00;;;11.00;99.90;;;;;;5074084;28;20774;-61
2023/10/04 00:37:50;;;;;;;2.15;1.80;;;11.10;99.90;;;;;;5073786;28;20185;-61
2023/10/04 00:40:21;;;;;;;0.57;0.57;;;11.00;99.90;;;;;;5074073;28;20307;-61
2023/10/04 00:42:47;;;;;;;1.87;0.53;;;11.00;99.90;;;;;;5073782;28;20817;-61
2023/10/04 00:45:13;;;;;;;2.50;1.50;;;11.10;99.90;;;;;;5073885;28;20416;-61
2023/10/04 00:47:53;;;;;;;0.97;0.73;;;11.20;99.90;;;;;;5073621;28;20462;-61
2023/10/04 00:50:26;;;;;;;7.73;1.07;;;11.10;99.90;;;;;;5074262;28;20911;-61
2023/10/04 00:53:14;;;;;;;0.80;0.80;;;11.10;99.90;;;;;;5073814;28;20428;-61
2023/10/04 00:55:43;;;;;;;0.60;0.60;;;11.20;99.90;;;;;;5073612;28;20490;-61
2023/10/04 00:58:10;;;;;;;0.43;0.43;;;11.00;99.90;;;;;;5073420;28;20410;-61
2023/10/04 01:00:38;;;;;;;1.60;1.00;;;11.00;99.90;;;;;;5073675;28;20400;-61
2023/10/04 01:03:05;;;;;;;0.60;0.60;;;11.00;99.90;;;;;;5073513;28;20511;-61
2023/10/04 01:05:32;;;;;;;0.77;0.70;;;11.00;99.90;;;;;;5076705;28;20414;-61
2023/10/04 01:08:00;;;;;;;1.20;1.03;;;10.90;99.90;;;;;;5093432;28;20446;-61
2023/10/04 01:10:32;;;;;;;1.00;1.00;;;10.80;99.90;;;;;;5094072;28;20407;-60
2023/10/04 01:12:58;;;;;;;0.60;0.60;;;10.70;99.90;;;;;;5093758;28;20469;-61
2023/10/04 01:15:31;;;;;;;0.77;0.77;;;10.60;99.90;;;;;;5093063;28;20438;-61
2023/10/04 01:17:59;;;;;;;1.58;1.20;;;10.60;99.90;;;;;;5093244;28;20489;-61
2023/10/04 01:20:27;;;;;;;0.80;0.80;;;10.70;99.90;;;;;;5093939;28;20180;-61
2023/10/04 01:23:11;;;;;;;0.50;0.50;;;10.80;99.90;;;;;;5093282;28;20205;-60
2023/10/04 01:25:39;;;;;;;0.88;0.80;;;10.80;99.90;;;;;;5093355;28;20468;-61
2023/10/04 01:28:12;;;;;;;0.65;0.65;;;10.80;99.90;;;;;;5093092;28;20291;-61
2023/10/04 01:30:43;;;;;;;0.90;0.90;;;10.90;99.90;;;;;;5075166;28;20598;-61
2023/10/04 01:33:16;;;;;;;0.47;0.47;;;10.70;99.90;;;;;;5093216;28;20196;-61
2023/10/04 01:35:46;;;;;;;0.63;0.63;;;10.60;99.90;;;;;;5093241;28;20625;-61
2023/10/04 01:38:13;;;;;;;0.40;0.40;;;10.50;99.90;;;;;;5092969;28;20417;-61
2023/10/04 01:40:40;;;;;;;0.93;0.50;;;10.40;99.90;;;;;;5092918;28;20411;-61
2023/10/04 01:43:14;;;;;;;0.55;0.55;;;10.40;99.90;;;;;;5092770;28;20200;-61
2023/10/04 01:45:47;;;;;;;1.65;0.65;;;10.50;99.90;;;;;;5093161;28;20653;-61
2023/10/04 01:48:15;;;;;;;0.75;0.70;;;10.50;99.90;;;;;;5092683;28;20604;-61
2023/10/04 01:50:44;;;;;;;0.45;0.45;;;10.50;99.90;;;;;;5092900;28;20157;-61
2023/10/04 01:53:11;;;;;;;1.20;0.73;;;10.50;99.90;;;;;;5092772;28;20272;-61
2023/10/04 01:55:37;;;;;;;1.60;0.90;;;10.50;99.90;;;;;;5092619;28;20217;-61
2023/10/04 01:58:04;;;;;;;1.15;0.60;;;10.40;99.90;;;;;;5092549;28;20752;-60
2023/10/04 02:00:30;;;;;;;1.45;0.60;;;10.40;99.90;;;;;;5092774;28;20264;-60
2023/10/04 02:02:56;;;;;;;0.70;0.68;;;10.30;99.90;;;;;;5092508;28;20686;-61
2023/10/04 02:05:28;;;;;;;1.43;1.33;;;10.30;99.90;;;;;;5092612;28;20191;-61
2023/10/04 02:07:56;;;;;;;1.05;0.88;;;10.30;99.90;;;;;;5092157;28;20204;-61
2023/10/04 02:10:22;;;;;;;0.40;0.40;;;10.30;99.90;;;;;;5092365;28;20181;-60
2023/10/04 02:12:50;;;;;;;0.60;0.60;;;10.30;99.90;;;;;;5092425;28;20266;-61
2023/10/04 02:15:17;;;;;;;0.97;0.77;;;10.20;99.90;;;;;;5092402;28;20584;-61
2023/10/04 02:17:44;;;;;;;0.50;0.50;;;10.20;99.90;;;;;;5092154;28;20432;-61
2023/10/04 02:20:24;;;;;;;0.55;0.55;;;10.10;99.90;;;;;;5092425;28;20176;-61
2023/10/04 02:22:51;;;;;;;0.65;0.65;;;10.20;99.90;;;;;;5092015;28;20231;-61
2023/10/04 02:25:17;;;;;;;0.80;0.50;;;10.20;99.90;;;;;;5092136;28;20256;-61
2023/10/04 02:27:49;;;;;;;0.70;0.70;;;10.20;99.90;;;;;;5091071;28;20193;-61
2023/10/04 02:30:26;;;;;;;1.25;0.93;;;10.20;99.90;;;;;;5092219;28;20259;-61
2023/10/04 02:32:53;;;;;;;0.70;0.70;;;10.20;99.90;;;;;;5092524;28;20193;-60
2023/10/04 02:37:54;;;;;;;0.60;0.50;;;10.10;99.90;;;;;;5092092;28;20187;-61
2023/10/04 02:40:27;;;;;;;1.40;1.30;;;9.90;99.90;;;;;;5090733;28;20176;-60
2023/10/04 02:42:58;;;;;;;0.88;0.88;;;10.00;99.90;;;;;;5091986;28;20192;-61
2023/10/04 02:45:24;;;;;;;1.02;0.60;;;10.00;99.90;;;;;;5091997;28;20173;-61
2023/10/04 02:47:52;;;;;;;0.50;0.50;;;10.00;99.90;;;;;;5091500;28;20185;-60
2023/10/04 02:50:19;;;;;;;0.60;0.60;;;10.00;99.90;;;;;;5092062;28;20230;-61
2023/10/04 02:52:46;;;;;;;2.35;1.58;;;9.90;99.90;;;;;;5073685;28;20196;-61
2023/10/04 02:55:16;;;;;;;1.63;1.33;;;10.00;99.90;;;;;;5091759;28;20236;-61
2023/10/04 02:57:43;;;;;;;0.88;0.80;;;10.00;99.90;;;;;;5091464;28;20666;-61
2023/10/04 03:00:16;;;;;;;1.95;0.60;;;10.00;99.90;;;;;;5091649;28;20199;-61
2023/10/04 03:02:47;;;;;;;0.70;0.70;;;10.10;99.90;;;;;;5078728;28;20205;-61
2023/10/04 03:05:17;;;;;;;1.27;1.23;;;10.10;99.90;;;;;;5071854;28;20185;-61
2023/10/04 03:07:43;;;;;;;1.40;1.30;;;10.00;99.90;;;;;;5071165;28;20224;-61
2023/10/04 03:10:12;;;;;;;1.30;1.20;;;10.00;99.90;;;;;;5071441;28;20166;-61
2023/10/04 03:12:41;;;;;;;0.40;0.40;;;10.00;99.90;;;;;;5071282;28;20189;-61
2023/10/04 03:15:10;;;;;;;1.77;0.60;;;10.00;99.90;;;;;;5071609;28;20205;-61
2023/10/04 03:17:36;;;;;;;1.55;1.13;;;9.80;99.90;;;;;;5053144;28;20709;-61
2023/10/04 03:20:04;;;;;;;0.50;0.50;;;9.80;99.90;;;;;;5071427;28;20182;-61
2023/10/04 03:22:30;;;;;;;1.27;1.08;;;9.80;99.90;;;;;;5071286;28;20454;-61
2023/10/04 03:24:55;;;;;;;0.60;0.60;;;9.70;99.90;;;;;;5071164;28;20181;-61
2023/10/04 03:27:21;;;;;;;0.60;0.60;;;9.70;99.90;;;;;;5070798;28;20239;-61
2023/10/04 03:29:53;;;;;;;0.50;0.50;;;9.70;99.90;;;;;;5071257;28;20212;-61
2023/10/04 03:32:19;;;;;;;2.05;1.50;;;9.80;99.90;;;;;;5071346;28;20197;-61
2023/10/04 03:34:45;;;;;;;0.70;0.70;;;9.90;99.90;;;;;;5071293;28;20227;-61
2023/10/04 03:37:14;;;;;;;1.37;0.90;;;9.90;99.90;;;;;;5070900;28;20642;-61
2023/10/04 03:39:39;;;;;;;0.52;0.52;;;9.80;99.90;;;;;;5073874;28;20412;-61
2023/10/04 03:42:05;;;;;;;7.97;1.10;;;9.80;99.90;;;;;;5074963;28;20224;-61
2023/10/04 03:44:31;;;;;;;0.50;0.50;;;9.90;99.90;;;;;;5075273;28;20494;-61
2023/10/04 03:46:57;;;;;;;0.67;0.67;;;10.00;99.90;;;;;;5074738;28;21034;-60
2023/10/04 03:49:24;;;;;;;0.60;0.60;;;10.00;99.90;;;;;;5075046;28;20408;-61
2023/10/04 03:51:52;;;;;;;0.40;0.40;;;10.00;99.90;;;;;;5075243;28;20192;-60
2023/10/04 03:54:21;;;;;;;1.25;0.70;;;10.00;99.90;;;;;;5074982;28;20539;-61
2023/10/04 03:56:47;;;;;;;2.05;0.50;;;10.00;99.90;;;;;;5074585;28;20184;-61
2023/10/04 03:59:12;;;;;;;0.60;0.60;;;10.00;99.90;;;;;;5074970;28;20185;-61
2023/10/04 04:01:38;;;;;;;0.60;0.60;;;9.80;99.90;;;;;;5074893;28;20248;-61
2023/10/04 04:04:04;;;;;;;1.07;1.07;;;9.70;99.90;;;;;;5074827;28;20200;-61
2023/10/04 04:06:30;;;;;;;0.50;0.50;;;9.50;99.90;;;;;;5074748;28;20181;-61
2023/10/04 04:08:58;;;;;;;0.60;0.60;;;9.60;99.90;;;;;;5074552;28;20174;-61
2023/10/04 04:11:24;;;;;;;0.75;0.52;;;9.60;99.90;;;;;;5074474;28;20497;-61
2023/10/04 04:13:49;;;;;;;0.87;0.63;;;9.60;99.90;;;;;;5074952;28;20576;-61
2023/10/04 04:16:17;;;;;;;0.90;0.90;;;9.50;99.90;;;;;;5074170;28;20487;-61
2023/10/04 04:18:44;;;;;;;1.15;0.68;;;9.40;99.90;;;;;;5074450;28;20258;-61
2023/10/04 04:21:10;;;;;;;0.70;0.70;;;9.50;99.90;;;;;;5074402;28;20185;-61
2023/10/04 04:23:36;;;;;;;0.93;0.93;;;9.50;99.90;;;;;;5074070;28;20223;-60
2023/10/04 04:26:05;;;;;;;0.50;0.50;;;9.50;99.90;;;;;;5074088;28;20227;-61
2023/10/04 04:28:34;;;;;;;2.40;1.10;;;9.50;99.90;;;;;;5074394;28;20216;-61
2023/10/04 04:31:00;;;;;;;0.50;0.50;;;9.40;99.90;;;;;;5074321;28;20226;-61
2023/10/04 04:33:29;;;;;;;0.50;0.50;;;9.40;99.90;;;;;;5074143;28;20594;-61
2023/10/04 04:36:01;;;;;;;0.40;0.40;;;9.30;99.90;;;;;;5074065;28;20253;-61
2023/10/04 04:38:28;;;;;;;0.40;0.40;;;9.20;99.90;;;;;;5073952;28;20200;-61
2023/10/04 04:40:56;;;;;;;0.63;0.63;;;9.20;99.90;;;;;;5074010;28;20227;-60
2023/10/04 04:45:52;;;;;;;1.00;1.00;;;9.20;99.90;;;;;;5091769;28;20265;-61
2023/10/04 04:48:26;;;;;;;0.65;0.65;;;9.30;99.90;;;;;;5093844;28;20599;-60
2023/10/04 04:50:57;;;;;;;0.40;0.40;;;9.20;99.90;;;;;;5093205;28;20213;-60
2023/10/04 04:53:27;;;;;;;1.65;0.52;;;9.20;99.90;;;;;;5094274;28;20649;-60
2023/10/04 04:55:53;;;;;;;5.07;1.30;;;9.30;99.90;;;;;;5094332;28;20169;-60
2023/10/04 04:58:20;;;;;;;1.23;1.20;;;9.40;99.90;;;;;;5093212;28;20541;-60
2023/10/04 05:00:50;;;;;;;0.50;0.50;;;9.40;99.90;;;;;;5082948;28;20165;-60
2023/10/04 05:03:18;;;;;;;2.55;0.60;;;9.30;99.90;;;;;;5080894;28;20310;-60
2023/10/04 05:05:45;;;;;;;1.30;0.55;;;9.30;99.90;;;;;;5088128;28;20181;-60
2023/10/04 05:08:11;;;;;;;0.88;0.55;;;9.40;99.90;;;;;;5083005;28;20201;-61
2023/10/04 05:10:40;;;;;;;4.33;1.07;;;9.30;99.90;;;;;;5083810;28;20169;-60
2023/10/04 05:13:07;;;;;;;0.50;0.50;;;9.20;99.90;;;;;;5082645;28;20424;-59
2023/10/04 05:15:38;;;;;;;1.10;1.05;;;9.20;99.90;;;;;;5082810;28;20165;-59
2023/10/04 05:18:05;;;;;;;0.90;0.90;;;9.20;99.90;;;;;;5084047;28;20560;-60
2023/10/04 05:20:32;;;;;;;0.82;0.50;;;9.20;99.90;;;;;;5082940;28;20169;-60
2023/10/04 05:23:01;;;;;;;1.05;0.93;;;9.10;99.90;;;;;;5082019;28;20230;-61
2023/10/04 05:25:30;;;;;;;1.50;1.40;;;9.00;99.90;;;;;;5087878;28;20185;-60
2023/10/04 05:28:06;;;;;;;1.30;1.20;;;9.10;99.90;;;;;;5093022;28;20245;-60
2023/10/04 05:30:33;;;;;;;0.40;0.40;;;9.00;99.90;;;;;;5093324;28;20606;-60
2023/10/04 05:32:58;;;;;;;1.30;0.70;;;9.10;99.90;;;;;;5093248;28;20223;-60
2023/10/04 05:35:25;;;;;;;0.80;0.80;;;9.10;99.90;;;;;;5093286;28;20615;-60
2023/10/04 05:37:50;;;;;;;0.68;0.57;;;9.20;99.90;;;;;;5092592;28;20181;-59
2023/10/04 05:40:23;;;;;;;0.97;0.90;;;9.30;99.90;;;;;;5093157;28;20176;-60
2023/10/04 05:42:49;;;;;;;0.75;0.75;;;9.30;99.90;;;;;;5092758;28;20196;-60
2023/10/04 05:45:16;;;;;;;1.00;0.70;;;9.40;99.90;;;;;;5092704;28;20180;-60
2023/10/04 05:47:43;;;;;;;0.57;0.57;;;9.50;99.90;;;;;;5092584;28;20454;-60
2023/10/04 05:50:17;;;;;;;0.50;0.50;;;9.50;99.90;;;;;;5092856;28;20263;-60
2023/10/04 05:52:43;;;;;;;1.10;0.60;;;9.50;99.90;;;;;;5092796;28;20270;-60
2023/10/04 05:55:10;;;;;;;0.60;0.60;;;9.40;99.90;;;;;;5092704;28;20176;-60
2023/10/04 05:57:36;;;;;;;0.82;0.82;;;9.40;99.90;;;;;;5092455;28;20173;-60
2023/10/04 06:00:28;;;;;;;0.77;0.77;;;9.40;99.90;;;;;;5092455;28;20172;-59
2023/10/04 06:02:58;;;;;;;0.65;0.65;;;9.40;99.90;;;;;;5077244;28;20223;-60
2023/10/04 06:05:25;;;;;;;1.65;0.80;;;9.30;99.90;;;;;;5092661;28;20185;-60
2023/10/04 06:07:59;;;;;;;3.42;1.02;;;9.30;99.90;;;;;;5092260;28;20281;-60
2023/10/04 06:10:25;;;;;;;0.40;0.40;;;9.40;99.90;;;;;;5092539;28;20186;-60
2023/10/04 06:12:53;;;;;;;2.77;2.57;;;9.50;99.90;;;;;;5092618;28;20192;-60
2023/10/04 06:15:19;;;;;;;0.85;0.85;;;9.50;99.90;;;;;;5092501;28;20256;-60
2023/10/04 06:17:47;;;;;;;1.30;0.60;;;9.70;99.90;;;;;;5092189;28;20196;-60
2023/10/04 06:20:33;;;;;;;0.65;0.65;;;9.80;99.90;;;;;;5092261;28;20711;-60
2023/10/04 06:23:01;;;;;;;1.50;0.80;;;9.80;99.90;;;;;;5092342;28;20216;-60
2023/10/04 06:25:31;;;;;;;0.60;0.52;;;9.80;99.90;;;;;;5092471;28;20650;-60
2023/10/04 06:27:58;;;;;;;0.95;0.55;;;9.80;99.90;;;;;;5092166;28;20670;-60
2023/10/04 06:30:26;;;;;;;1.23;1.13;;;9.70;99.90;;;;;;5092269;28;20699;-60
2023/10/04 06:32:57;;;;;;;1.40;1.10;;;9.70;99.90;;;;;;5092349;28;20197;-60
2023/10/04 06:35:24;;;;;;;0.88;0.88;;;9.80;99.90;;;;;;5092165;28;20230;-60
2023/10/04 06:38:17;;;;;;;0.50;0.50;;;9.80;99.90;;;;;;5091751;28;20176;-60
2023/10/04 06:40:43;;;;;;;0.50;0.50;;;9.80;99.90;;;;;;5087031;28;20296;-60
2023/10/04 06:43:09;;;;;;;1.13;0.60;;;9.80;99.90;;;;;;5091598;28;20677;-60
2023/10/04 06:45:37;;;;;;;0.52;0.52;;;9.80;99.90;;;;;;5091803;28;20179;-60
2023/10/04 06:48:04;;;;;;;0.95;0.70;;;9.90;99.90;;;;;;5091687;28;20229;-60
2023/10/04 06:50:35;;;;;;;0.70;0.70;;;10.00;99.90;;;;;;5091963;28;20573;-60
2023/10/04 06:53:02;;;;;;;7.13;0.80;;;10.20;99.90;;;;;;5091850;28;20924;-60
2023/10/04 06:55:33;;;;;;;0.80;0.80;;;11.00;99.90;;;;;;5091857;28;20918;-61
2023/10/04 06:57:59;;;;;;;2.13;0.93;;;12.30;99.90;;;;;;5091484;28;20421;-61
2023/10/04 07:00:30;;;;;;;1.00;0.73;;;13.80;99.90;;;;;;5091821;28;20908;-61
2023/10/04 07:02:59;;;;;;;0.50;0.50;;;15.20;99.10;;;;;;5091127;28;20506;-61
2023/10/04 07:05:36;;;;;;;3.63;0.80;;;17.30;96.60;;;;;;5091549;28;20947;-61
2023/10/04 07:08:04;;;;;;;2.07;0.80;;;19.50;93.70;;;;;;5091249;28;20544;-58
2023/10/04 07:10:30;;;;;;;0.50;0.50;;;21.40;88.70;;;;;;5091524;28;20405;-59
2023/10/04 07:12:57;;;;;;;2.10;0.80;;;23.00;83.90;;;;;;5091895;28;20426;-59
2023/10/04 07:15:39;;;;;;;1.37;1.07;;;24.20;76.10;;;;;;5097941;28;20390;-59
2023/10/04 07:18:06;;;;;;;1.33;1.00;;;24.90;67.10;;;;;;5097996;28;20413;-59
2023/10/04 07:20:32;;;;;;;2.10;0.90;;;25.10;62.00;;;;;;5098313;28;20410;-59
2023/10/04 07:22:58;;;;;;;1.10;1.00;;;25.00;61.20;;;;;;5097988;28;20454;-59
2023/10/04 07:25:28;;;;;;;1.00;1.00;;;24.90;60.40;;;;;;5098265;28;20398;-59
2023/10/04 07:27:56;;;;;;;1.20;1.10;;;25.00;60.90;;;;;;5098018;28;20261;-59
2023/10/04 07:30:24;;;;;;;1.83;1.07;;;25.40;60.20;;;;;;5098335;28;20407;-59
2023/10/04 07:32:51;;;;;;;0.80;0.80;;;26.20;58.70;;;;;;5098095;28;20869;-59
2023/10/04 07:35:20;;;;;;;1.57;1.13;;;27.10;56.60;;;;;;5097875;28;20410;-59
2023/10/04 07:37:47;;;;;;;1.00;0.90;;;27.80;54.00;;;;;;5097947;28;20406;-60
2023/10/04 07:40:14;;;;;;;1.17;0.93;;;28.20;52.10;;;;;;5098097;28;20411;-60
2023/10/04 07:42:41;;;;;;;1.13;0.80;;;28.30;51.60;;;;;;5098160;28;20483;-60
2023/10/04 07:45:08;;;;;;;1.37;1.07;;;28.20;51.50;;;;;;5098046;28;20833;-60
2023/10/04 07:47:38;;;;;;;2.00;0.80;;;28.10;51.90;;;;;;5097784;28;20832;-60
2023/10/04 07:50:09;;;;;;;3.13;2.50;;;27.80;51.80;;;;;;5098021;28;20402;-59
2023/10/04 07:52:40;;;;;;;1.67;1.00;;;27.30;52.40;;;;;;5098159;28;20423;-60
2023/10/04 07:55:19;;;;;;;1.57;1.47;;;27.00;53.90;;;;;;5098085;28;20398;-60
2023/10/04 07:57:46;;;;;;;2.57;2.07;;;27.40;52.90;;;;;;5097950;28;20938;-60
2023/10/04 08:00:16;;;;;;;1.60;1.50;;;28.30;51.90;;;;;;5097958;28;20418;-60
2023/10/04 08:02:51;;;;;;;3.07;2.27;;;29.20;50.40;;;;;;5097924;28;20939;-60
2023/10/04 08:05:20;;;;;;;2.20;1.27;;;29.80;49.30;;;;;;5098114;28;20439;-60
2023/10/04 08:07:48;;;;;;;2.43;0.77;;;30.00;47.90;;;;;;5097608;28;20450;-60
2023/10/04 08:10:14;;;;;;;1.13;1.00;;;30.10;47.60;;;;;;5097926;28;20415;-60
2023/10/04 08:12:42;;;;;;;1.07;0.97;;;30.30;47.60;;;;;;5097762;28;20438;-59
2023/10/04 08:15:09;;;;;;;1.83;1.10;;;30.70;46.40;;;;;;5098026;28;20411;-60
2023/10/04 08:17:34;;;;;;;1.40;1.30;;;31.40;46.40;;;;;;5097666;28;20442;-60
2023/10/04 08:20:01;;;;;;;2.20;0.87;;;32.10;45.20;;;;;;5097888;28;20434;-60
2023/10/04 08:22:28;;;;;;;0.90;0.80;;;32.80;42.60;;;;;;5107354;22;20617;-62
2023/10/04 08:24:54;;;;;;;0.70;0.70;;;33.40;41.70;;;;;;5034834;28;20414;-62
2023/10/04 08:27:20;;;;;;;2.17;1.20;;;33.90;41.60;;;;;;5033214;28;20448;-63
2023/10/04 08:29:45;;;;;;;1.50;0.97;;;34.20;40.00;;;;;;5034084;28;20405;-63
2023/10/04 08:32:11;;;;;;;1.13;0.87;;;34.20;40.20;;;;;;5033998;28;20171;-62
2023/10/04 08:34:37;;;;;;;2.00;1.10;;;34.20;39.10;;;;;;5034042;28;20188;-63
2023/10/04 08:37:03;;;;;;;1.80;1.00;;;34.10;39.50;;;;;;5033682;28;20652;-62
2023/10/04 08:39:29;;;;;;;1.27;0.70;;;34.30;39.20;;;;;;5034068;28;20175;-63
2023/10/04 08:41:55;;;;;;;1.43;1.03;;;34.60;39.30;;;;;;5034119;28;20166;-62
2023/10/04 08:44:21;;;;;;;2.10;0.80;;;34.80;38.50;;;;;;5033744;28;20436;-63
2023/10/04 08:46:47;;;;;;;1.03;0.70;;;34.50;36.90;;;;;;5033462;28;20173;-63
2023/10/04 08:49:15;;;;;;;1.47;0.80;;;34.60;38.00;;;;;;5033777;28;20213;-64
2023/10/04 08:51:54;;;;;;;2.60;0.90;;;34.70;36.20;;;;;;5033681;28;20402;-63
2023/10/04 08:54:24;;;;;;;2.17;0.87;;;34.30;36.60;;;;;;5033830;28;20513;-62
2023/10/04 08:57:05;;;;;;;1.57;0.77;;;34.40;37.50;;;;;;5033303;28;20440;-62
2023/10/04 08:59:33;;;;;;;1.70;1.60;;;34.10;37.20;;;;;;5033009;28;20425;-62
2023/10/04 09:02:00;;;;;;;1.10;0.93;;;34.00;38.90;;;;;;5033371;28;20417;-62
2023/10/04 09:04:27;;;;;;;1.33;1.07;;;32.30;38.70;;;;;;5033703;28;20536;-62
2023/10/04 09:06:53;;;;;;;0.90;0.87;;;30.50;41.20;;;;;;5032974;28;20967;-62
2023/10/04 09:09:19;;;;;;;1.27;1.00;;;29.70;43.90;;;;;;5033460;28;20496;-62
2023/10/04 09:11:45;;;;;;;1.40;0.73;;;30.20;44.10;;;;;;5033272;28;20189;-62
2023/10/04 09:14:15;;;;;;;1.27;0.80;;;31.10;41.10;;;;;;5033192;28;20422;-62
2023/10/04 09:16:40;;;;;;;1.40;0.97;;;31.40;42.00;;;;;;5032760;28;20501;-62
2023/10/04 09:19:14;;;;;;;1.80;1.20;;;32.00;42.60;;;;;;5033179;28;20548;-62
2023/10/04 09:21:41;;;;;;;1.57;1.10;;;32.60;41.60;;;;;;5015460;28;20197;-62
2023/10/04 09:24:11;;;;;;;1.07;0.87;;;32.40;39.30;;;;;;5032982;28;20437;-61
2023/10/04 09:26:42;;;;;;;1.27;0.60;;;32.00;39.80;;;;;;5032883;28;20448;-62
2023/10/04 09:29:08;;;;;;;0.73;0.73;;;32.30;40.60;;;;;;5032981;28;20497;-62
2023/10/04 09:31:50;;;;;;;2.73;0.70;;;32.70;40.20;;;;;;5032990;28;20826;-61
2023/10/04 09:34:16;;;;;;;0.80;0.53;;;33.10;37.70;;;;;;5032772;28;20187;-62
2023/10/04 09:36:42;;;;;;;4.87;0.90;;;33.40;37.40;;;;;;5032243;28;20429;-62
2023/10/04 09:39:16;;;;;;;1.17;0.70;;;33.40;36.80;;;;;;5032844;28;21095;-62
2023/10/04 09:41:44;;;;;;;1.70;0.90;;;32.80;35.80;;;;;;5032756;28;20764;-62
2023/10/04 09:44:23;;;;;;;1.20;1.10;;;32.20;37.40;;;;;;5032644;28;20444;-62
2023/10/04 09:46:54;;;;;;;1.63;0.70;;;31.90;37.20;;;;;;5032289;28;20540;-62
2023/10/04 09:49:21;;;;;;;1.37;1.27;;;31.40;37.40;;;;;;5032707;28;20402;-62
2023/10/04 09:51:48;;;;;;;1.33;0.80;;;31.00;38.40;;;;;;5032655;28;20794;-62
2023/10/04 09:54:17;;;;;;;2.17;1.27;;;30.60;40.20;;;;;;5032377;28;20436;-62
2023/10/04 09:56:46;;;;;;;2.70;1.67;;;30.40;39.00;;;;;;5032371;28;20823;-62
2023/10/04 09:59:15;;;;;;;2.17;0.77;;;29.70;40.00;;;;;;5032459;28;20939;-63
2023/10/04 10:01:41;;;;;;;1.13;0.90;;;29.40;41.00;;;;;;5032390;28;20485;-62
2023/10/04 10:04:16;;;;;;;0.80;0.80;;;29.60;40.80;;;;;;5032285;28;20475;-62
2023/10/04 10:07:11;;;;;;;0.97;0.70;;;29.10;40.70;;;;;;5031628;28;20514;-62
2023/10/04 10:10:20;;;;;;;1.43;0.73;;;28.90;43.90;;;;;;5025137;28;20430;-61
2023/10/04 10:12:49;;;;;;;1.03;0.93;;;28.50;40.80;;;;;;4951621;28;20445;-62
2023/10/04 10:15:15;;;;;;;0.70;0.70;;;27.50;43.00;;;;;;5018043;28;20509;-61
2023/10/04 10:17:43;;;;;;;1.00;0.73;;;27.00;43.40;;;;;;5032109;28;20498;-61
2023/10/04 10:20:15;;;;;;;1.03;0.93;;;26.80;43.50;;;;;;5032022;28;20159;-61
2023/10/04 10:22:59;;;;;;;1.10;0.80;;;26.90;43.20;;;;;;5031911;28;20828;-62
2023/10/04 10:25:27;;;;;;;0.60;0.60;;;27.00;43.80;;;;;;5031891;28;20414;-62
2023/10/04 10:28:01;;;;;;;0.97;0.80;;;27.00;44.70;;;;;;5031715;28;20453;-62
2023/10/04 10:30:28;;;;;;;1.30;0.70;;;26.80;45.40;;;;;;5031964;28;20414;-61
2023/10/04 10:32:56;;;;;;;1.10;0.80;;;26.40;47.60;;;;;;5031794;28;20523;-62
2023/10/04 10:35:48;;;;;;;1.80;1.07;;;26.30;46.20;;;;;;5031730;28;20409;-62
2023/10/04 10:38:39;;;;;;;2.60;1.40;;;25.30;46.80;;;;;;5031483;28;20397;-61
2023/10/04 10:41:05;;;;;;;0.80;0.80;;;25.00;47.00;;;;;;5031693;28;20397;-62
2023/10/04 10:43:31;;;;;;;1.33;1.23;;;24.50;49.60;;;;;;5031530;28;20418;-61
2023/10/04 10:45:58;;;;;;;1.23;1.13;;;23.80;50.10;;;;;;5031951;28;20392;-61
2023/10/04 10:48:33;;;;;;;1.60;0.80;;;23.00;50.40;;;;;;5030716;28;20630;-61
2023/10/04 10:51:00;;;;;;;1.13;0.97;;;22.70;52.50;;;;;;5031584;28;20416;-61
2023/10/04 10:53:26;;;;;;;3.53;1.50;;;22.50;51.80;;;;;;5031455;28;20434;-61
2023/10/04 10:55:53;;;;;;;3.47;0.93;;;22.50;51.20;;;;;;5031428;28;20411;-61
2023/10/04 10:58:20;;;;;;;2.30;1.13;;;22.60;53.10;;;;;;5031257;28;20436;-61
2023/10/04 11:00:46;;;;;;;2.23;1.07;;;22.70;51.80;;;;;;5031427;28;20934;-61
2023/10/04 11:03:13;;;;;;;2.70;1.33;;;22.80;51.70;;;;;;5031355;28;20800;-60
2023/10/04 11:05:40;;;;;;;0.77;0.77;;;23.10;51.20;;;;;;5031311;28;20413;-61
2023/10/04 11:08:12;;;;;;;1.10;1.00;;;23.40;50.50;;;;;;5013340;28;20873;-61
2023/10/04 11:10:39;;;;;;;1.37;0.90;;;23.40;49.00;;;;;;5031296;28;20388;-61
2023/10/04 11:13:08;;;;;;;2.80;0.90;;;23.30;48.70;;;;;;5031213;28;20482;-60
2023/10/04 11:15:36;;;;;;;1.27;1.03;;;23.30;48.70;;;;;;5013599;28;20414;-61
2023/10/04 11:18:02;;;;;;;2.60;0.77;;;22.90;48.50;;;;;;5031033;28;20977;-61
2023/10/04 11:20:31;;;;;;;1.00;0.70;;;22.60;49.00;;;;;;5031176;28;20412;-61
2023/10/04 11:22:57;;;;;;;0.70;0.70;;;22.10;49.50;;;;;;5030960;28;20456;-61
2023/10/04 11:25:23;;;;;;;1.60;0.60;;;21.70;50.90;;;;;;5031102;28;20460;-62
2023/10/04 11:27:51;;;;;;;1.17;0.73;;;21.70;52.10;;;;;;5030633;28;20457;-62
2023/10/04 11:30:17;;;;;;;1.20;0.90;;;21.70;54.00;;;;;;5031114;28;20419;-61
2023/10/04 11:32:46;;;;;;;2.40;1.60;;;21.50;53.40;;;;;;5031385;28;20444;-61
2023/10/04 11:35:15;;;;;;;0.80;0.80;;;21.30;52.70;;;;;;5030949;28;20401;-61
2023/10/04 11:37:50;;;;;;;0.73;0.73;;;20.90;52.80;;;;;;5030896;28;20423;-62
2023/10/04 11:40:25;;;;;;;0.50;0.50;;;20.60;54.00;;;;;;5030944;28;20417;-61
2023/10/04 11:42:59;;;;;;;1.07;0.83;;;20.20;54.80;;;;;;5031147;28;20949;-61
2023/10/04 11:45:26;;;;;;;3.10;1.20;;;19.90;53.60;;;;;;5030987;28;20404;-61
2023/10/04 11:47:59;;;;;;;1.80;1.00;;;19.80;55.30;;;;;;5030674;28;20454;-60
2023/10/04 11:50:26;;;;;;;1.63;1.23;;;19.70;56.10;;;;;;5031027;28;20430;-61
2023/10/04 11:52:56;;;;;;;7.10;2.40;;;19.90;58.60;;;;;;5030720;28;20434;-61
2023/10/04 11:55:27;;;;;;;1.43;0.60;;;20.10;53.50;;;;;;5030862;28;20812;-61
2023/10/04 11:58:04;;;;;;;0.80;0.60;;;20.10;54.00;;;;;;5030898;28;20768;-61
2023/10/04 12:00:30;;;;;;;1.77;1.20;;;20.20;56.00;;;;;;5033328;28;20413;-61
2023/10/04 12:02:56;;;;;;;2.20;1.30;;;20.30;63.20;;;;;;5034542;28;20579;-62
2023/10/04 12:05:21;;;;;;;1.90;1.00;;;20.40;57.10;;;;;;5034542;28;20189;-61
2023/10/04 12:07:47;;;;;;;1.20;0.70;;;20.50;52.90;;;;;;5034321;28;20718;-61
2023/10/04 12:10:13;;;;;;;2.00;1.50;;;20.50;54.00;;;;;;5034516;28;20251;-62
2023/10/04 12:12:41;;;;;;;1.37;1.27;;;20.40;56.80;;;;;;5034296;28;20578;-61
2023/10/04 12:15:08;;;;;;;0.60;0.57;;;20.30;59.80;;;;;;5034393;28;20502;-61
2023/10/04 12:17:34;;;;;;;2.30;1.20;;;20.20;62.70;;;;;;5034078;28;20515;-61
2023/10/04 12:20:04;;;;;;;1.27;1.17;;;19.90;64.10;;;;;;5034223;28;20405;-61
2023/10/04 12:22:30;;;;;;;2.83;0.50;;;19.90;58.90;;;;;;5034229;28;20445;-61
2023/10/04 12:24:56;;;;;;;0.80;0.80;;;20.20;57.50;;;;;;5034114;28;20951;-61
2023/10/04 12:27:24;;;;;;;0.70;0.70;;;20.30;60.20;;;;;;5033823;28;20460;-61
2023/10/04 12:29:50;;;;;;;2.10;1.50;;;20.30;61.80;;;;;;5034289;28;20747;-61
2023/10/04 12:32:19;;;;;;;1.03;0.77;;;20.00;62.40;;;;;;5033888;28;20411;-61
2023/10/04 12:34:48;;;;;;;0.87;0.87;;;19.60;65.20;;;;;;5033987;28;20450;-61
2023/10/04 12:37:13;;;;;;;0.80;0.70;;;19.20;68.50;;;;;;5033734;28;20777;-61
2023/10/04 12:39:43;;;;;;;3.70;1.00;;;19.00;69.70;;;;;;5033990;28;20430;-61
2023/10/04 12:42:09;;;;;;;0.70;0.57;;;18.90;70.10;;;;;;5033862;28;20178;-61
2023/10/04 12:44:41;;;;;;;0.60;0.60;;;18.90;64.60;;;;;;5033806;28;20419;-61
2023/10/04 12:47:08;;;;;;;0.97;0.93;;;19.00;60.30;;;;;;5033361;28;20456;-61
2023/10/04 12:49:34;;;;;;;1.10;0.70;;;19.00;63.10;;;;;;5034045;28;20410;-61
2023/10/04 12:51:59;;;;;;;1.20;1.13;;;18.80;68.40;;;;;;5033587;28;20819;-61
2023/10/04 12:54:25;;;;;;;0.70;0.60;;;18.60;69.00;;;;;;5033624;28;20202;-61
2023/10/04 12:56:52;;;;;;;6.73;1.17;;;18.50;69.90;;;;;;5033217;28;20176;-61
2023/10/04 12:59:19;;;;;;;1.00;0.90;;;18.50;71.10;;;;;;5033588;28;20171;-61
2023/10/04 13:01:45;;;;;;;1.13;1.03;;;18.50;73.10;;;;;;5033459;28;20409;-61
2023/10/04 13:04:11;;;;;;;2.13;0.87;;;18.30;73.00;;;;;;5033581;28;20463;-61